Terminal Aerodrome Forecast
Issued by NWS Wilmington, NC

Current Version | Previous Version | Graphics & Text | Print | Product List | Glossary Off
Versions: 1 2 3 4 5 6 7 8 9 10 11 12 13

117
FTUS42 KILM 262328
TAFMYR
TAF
KMYR 262328Z 2700/2724 18011KT P6SM FEW080
     FM270300 18004KT P6SM FEW250
     FM271200 12007KT P6SM SKC
     FM271600 15011KT P6SM SKC
      AMD LTD TO CLD VIS AND WIND 2704/2711=

USA.gov is the U.S. government's official web portal to all federal, state and local government web resources and services.